Flight Track Log - Related Links

Times and Time Zones

All times are in EDT time to prevent confusion due to time zone crossing. See the AMF1695 flight status page for this flight to view local times or setup timezone preferences in your user account.

Time Position Orientation Groundspeed Altitude Reporting Facility
EDT Latitude Longitude Course Direction KTS MPH feet Rate Location/Type
Fri 09:24:24 PM 40.9922 -98.1572 77° East 163 188 6,700  Level Minneapolis Center
Fri 09:25:25 PM 40.9956 -98.1117 84° East 160 184 7,700 1,113 Climbing Minneapolis Center
Fri 09:26:28 PM 40.9928 -98.0389 93° East 165 190 9,000 624 Climbing Minneapolis Center
Fri 09:27:30 PM 40.9961 -97.9681 86° East 184 212 9,000 48 Level Minneapolis Center
Fri 09:28:00 PM 41.0012 -97.9310 56° Northeast  Level FlightAware Approximate
Fri 09:28:32 PM 41.0033 -97.8981 82° East 191 220 9,100  Level Minneapolis Center
Fri 09:29:34 PM 41.0072 -97.8131 87° East 192 221 9,000  Descending Minneapolis Center
Fri 09:30:36 PM 41.0117 -97.7417 85° East 194 223 9,100  Climbing Minneapolis Center
Fri 09:32:02 PM 41.0169 -97.6572 85° East 192 221 9,000 -54 Descending Minneapolis Center
Fri 09:32:27 PM 40.9922 -97.6044 122° Southeast 195 224 9,000  Level Minneapolis Center
Fri 09:33:04 PM 41.0133 -97.5711 50° Northeast 195 224 9,000  Level Minneapolis Center
Fri 09:33:33 PM 40.9944 -97.5272 120° Southeast 195 224 9,000  Level Minneapolis Center
Fri 09:34:05 PM 41.0161 -97.5128 27° Northeast 197 227 9,000 90 Level Minneapolis Center
Fri 09:34:40 PM 41.0028 -97.4464 105° East 192 221 9,100 95 Climbing Minneapolis Center
Fri 09:35:08 PM 41.0258 -97.4283 31° Northeast 195 224 9,100  Level Minneapolis Center
Fri 09:35:53 PM 41.0089 -97.3658 110° East 195 224 9,100  Level Minneapolis Center
Fri 09:36:09 PM 41.0308 -97.3508 27° Northeast 194 223 9,100 -167 Level Minneapolis Center
Fri 09:36:29 PM 41.0125 -97.3186 127° Southeast 195 224 9,000 -97 Descending Minneapolis Center
Fri 09:37:11 PM 41.0308 -97.2786 59° Northeast 196 226 9,000  Level Minneapolis Center
Fri 09:37:54 PM 41.0133 -97.2164 110° East 199 229 9,000  Level Minneapolis Center
Fri 09:38:13 PM 41.0306 -97.2067 23° Northeast 196 226 9,000  Level Minneapolis Center
Fri 09:38:55 PM 41.0156 -97.1444 108° East 195 224 9,000 -97 Level Minneapolis Center
Fri 09:39:15 PM 41.0342 -97.1344 22° Northeast 195 224 8,900  Descending Minneapolis Center
Fri 09:39:37 PM 41.0294 -97.0933 99° East 198 228 9,000 197 Climbing Minneapolis Center
Fri 09:40:16 PM 41.0547 -97.0506 52° Northeast 199 229 9,100  Climbing Minneapolis Center
Fri 09:40:38 PM 41.0464 -97.0228 112° Southeast 202 232 9,000 -97 Descending Minneapolis Center
Fri 09:41:18 PM 41.0694 -96.9772 56° Northeast 204 235 9,000  Level Minneapolis Center
Fri 09:41:39 PM 41.0589 -96.9469 115° Southeast 209 241 9,000  Level Minneapolis Center
Fri 09:42:20 PM 41.0800 -96.9008 59° Northeast 209 241 9,000  Level Minneapolis Center
Fri 09:42:40 PM 41.0711 -96.8711 112° Southeast 210 242 9,000  Level Minneapolis Center
Fri 09:43:21 PM 41.0883 -96.8242 64° Northeast 210 242 9,000  Level Minneapolis Center
Fri 09:43:40 PM 41.0792 -96.7931 111° Southeast 212 244 9,000  Level Minneapolis Center
Fri 09:44:23 PM 41.0961 -96.7464 64° Northeast 212 244 9,000  Level Minneapolis Center
Fri 09:44:41 PM 41.0892 -96.7147 106° East 213 245 9,000  Level Minneapolis Center
Fri 09:45:25 PM 41.1061 -96.6706 63° Northeast 211 243 9,000  Level Minneapolis Center
Fri 09:45:42 PM 41.0994 -96.6389 106° East 211 243 9,000  Level Minneapolis Center
Fri 09:46:26 PM 41.1133 -96.5933 68° East 211 243 9,000  Level Minneapolis Center
Fri 09:46:43 PM 41.1133 -96.5600 90° East 209 241 9,000  Level Minneapolis Center
Fri 09:47:28 PM 41.1328 -96.5200 57° Northeast 210 242 9,000  Level Minneapolis Center
Fri 09:47:44 PM 41.1342 -96.4886 87° East 211 243 9,000  Level Minneapolis Center
Fri 09:48:29 PM 41.1564 -96.4339 62° Northeast 208 239 9,000  Level Minneapolis Center
Fri 09:49:31 PM 41.1733 -96.3617 73° East 207 238 9,000  Level Minneapolis Center
Fri 09:49:57 PM 41.1786 -96.3289 78° East 207 238 9,000  Level Minneapolis Center
Fri 09:50:33 PM 41.1975 -96.2933 55° Northeast 205 236 9,000 98 Level Minneapolis Center
Fri 09:50:58 PM 41.2058 -96.2622 70° East 204 235 9,100  Climbing Minneapolis Center
Fri 09:51:34 PM 41.2225 -96.2256 59° Northeast 205 236 9,000 -111 Descending Minneapolis Center
Fri 09:51:52 PM 41.2269 -96.1989 77° East 207 238 9,000 -290 Level Minneapolis Center
Fri 09:52:36 PM 41.2517 -96.1597 50° Northeast 207 238 8,700 -984 Descending Minneapolis Center
Fri 09:52:53 PM 41.2631 -96.1394 53° Northeast 196 226 8,000 -1,377 Descending Minneapolis Center
Fri 09:53:37 PM 41.2831 -96.1008 55° Northeast 202 232 7,300 -1,500 Descending Minneapolis Center
Fri 09:53:53 PM 41.2908 -96.0836 59° Northeast 183 211 6,500 -1,315 Descending Minneapolis Center
Fri 09:54:50 PM 41.3136 -96.0511 47° Northeast 189 217 5,700 -1,311 Descending Minneapolis Center
Fri 09:55:52 PM 41.3569 -95.9914 46° Northeast 175 201 3,900 -1,563 Descending Minneapolis Center
Fri 09:56:49 PM 41.3622 -95.9589 78° East 107 123 2,600 -1,125 Descending Minneapolis Center
Fri 09:57:44 PM 41.3419 -95.9392 144° Southeast 95 109 1,800 -716 Descending Minneapolis Center
Fri 09:58:38 PM 41.3219 -95.9192 143° Southeast 99 114 1,300 -500 Descending Minneapolis Center
Fri 09:58:56 PM 41.3186 -95.9103 117° Southeast 106 122 1,200 -333 Descending Minneapolis Center
Fri 10:00:00 PM 41.3032 -95.8941 75° East  Level Estimated
Fri 10:07:00 PM 41.3032 -95.8941 75° East  Level Estimated

Login

Don't have an account? Register now (free) for customized features, flight alerts, and more!